sensor_id;sensor_type;location;lat;lon;timestamp;P1;durP1;ratioP1;P2;durP2;ratioP2
15697;SDS011;7949;48.726;9.102;2023-02-23T00:00:47;27.67;;;12.98;;
15697;SDS011;7949;48.726;9.102;2023-02-23T00:03:14;22.42;;;11.48;;
15697;SDS011;7949;48.726;9.102;2023-02-23T00:05:41;23.63;;;11.88;;
15697;SDS011;7949;48.726;9.102;2023-02-23T00:08:08;24.27;;;12.52;;
15697;SDS011;7949;48.726;9.102;2023-02-23T00:10:35;32.75;;;13.55;;
15697;SDS011;7949;48.726;9.102;2023-02-23T00:13:02;30.65;;;13.27;;
15697;SDS011;7949;48.726;9.102;2023-02-23T00:15:30;25.83;;;12.23;;
15697;SDS011;7949;48.726;9.102;2023-02-23T00:17:57;26.15;;;12.93;;
15697;SDS011;7949;48.726;9.102;2023-02-23T00:20:25;25.52;;;12.05;;
15697;SDS011;7949;48.726;9.102;2023-02-23T00:22:52;27.60;;;13.43;;
15697;SDS011;7949;48.726;9.102;2023-02-23T00:25:20;33.22;;;16.08;;
15697;SDS011;7949;48.726;9.102;2023-02-23T00:27:48;31.13;;;14.68;;
15697;SDS011;7949;48.726;9.102;2023-02-23T00:30:15;32.60;;;15.65;;
15697;SDS011;7949;48.726;9.102;2023-02-23T00:32:44;29.02;;;14.65;;
15697;SDS011;7949;48.726;9.102;2023-02-23T00:35:11;27.88;;;13.20;;
15697;SDS011;7949;48.726;9.102;2023-02-23T00:37:43;29.55;;;13.50;;
15697;SDS011;7949;48.726;9.102;2023-02-23T00:40:11;30.52;;;15.48;;
15697;SDS011;7949;48.726;9.102;2023-02-23T00:42:40;32.10;;;15.70;;
15697;SDS011;7949;48.726;9.102;2023-02-23T00:45:08;39.33;;;16.17;;
15697;SDS011;7949;48.726;9.102;2023-02-23T00:47:36;30.85;;;15.43;;
15697;SDS011;7949;48.726;9.102;2023-02-23T00:50:06;36.40;;;15.98;;
15697;SDS011;7949;48.726;9.102;2023-02-23T00:55:05;29.55;;;14.77;;
15697;SDS011;7949;48.726;9.102;2023-02-23T00:57:32;36.03;;;16.80;;
15697;SDS011;7949;48.726;9.102;2023-02-23T00:59:59;36.33;;;17.13;;
15697;SDS011;7949;48.726;9.102;2023-02-23T01:02:37;34.83;;;17.02;;
15697;SDS011;7949;48.726;9.102;2023-02-23T01:05:04;39.40;;;17.30;;
15697;SDS011;7949;48.726;9.102;2023-02-23T01:07:33;38.28;;;19.08;;
15697;SDS011;7949;48.726;9.102;2023-02-23T01:10:00;42.33;;;19.52;;
15697;SDS011;7949;48.726;9.102;2023-02-23T01:12:31;43.97;;;19.88;;
15697;SDS011;7949;48.726;9.102;2023-02-23T01:14:58;39.92;;;18.98;;
15697;SDS011;7949;48.726;9.102;2023-02-23T01:17:27;42.25;;;20.10;;
15697;SDS011;7949;48.726;9.102;2023-02-23T01:19:54;42.78;;;19.40;;
15697;SDS011;7949;48.726;9.102;2023-02-23T01:22:22;40.33;;;19.40;;
15697;SDS011;7949;48.726;9.102;2023-02-23T01:24:49;42.17;;;17.70;;
15697;SDS011;7949;48.726;9.102;2023-02-23T01:27:16;44.00;;;19.02;;
15697;SDS011;7949;48.726;9.102;2023-02-23T01:29:44;36.97;;;17.73;;
15697;SDS011;7949;48.726;9.102;2023-02-23T01:32:11;40.78;;;19.77;;
15697;SDS011;7949;48.726;9.102;2023-02-23T01:34:37;37.85;;;18.05;;
15697;SDS011;7949;48.726;9.102;2023-02-23T01:37:04;38.90;;;18.25;;
15697;SDS011;7949;48.726;9.102;2023-02-23T01:39:34;36.35;;;18.17;;
15697;SDS011;7949;48.726;9.102;2023-02-23T01:42:01;40.15;;;19.27;;
15697;SDS011;7949;48.726;9.102;2023-02-23T01:47:38;37.92;;;18.40;;
15697;SDS011;7949;48.726;9.102;2023-02-23T01:50:05;40.72;;;18.13;;
15697;SDS011;7949;48.726;9.102;2023-02-23T01:52:35;46.40;;;19.50;;
15697;SDS011;7949;48.726;9.102;2023-02-23T01:55:05;43.47;;;18.70;;
15697;SDS011;7949;48.726;9.102;2023-02-23T01:57:37;43.53;;;19.55;;
15697;SDS011;7949;48.726;9.102;2023-02-23T02:00:06;43.00;;;18.50;;
15697;SDS011;7949;48.726;9.102;2023-02-23T02:02:37;43.42;;;19.30;;
15697;SDS011;7949;48.726;9.102;2023-02-23T02:05:05;39.40;;;19.73;;
15697;SDS011;7949;48.726;9.102;2023-02-23T02:07:38;45.65;;;19.92;;
15697;SDS011;7949;48.726;9.102;2023-02-23T02:10:10;40.20;;;19.30;;
15697;SDS011;7949;48.726;9.102;2023-02-23T02:13:11;45.83;;;20.50;;
15697;SDS011;7949;48.726;9.102;2023-02-23T02:15:48;46.67;;;21.20;;
15697;SDS011;7949;48.726;9.102;2023-02-23T02:18:47;47.40;;;19.27;;
15697;SDS011;7949;48.726;9.102;2023-02-23T02:24:55;46.80;;;19.75;;
15697;SDS011;7949;48.726;9.102;2023-02-23T02:27:47;42.25;;;18.85;;
15697;SDS011;7949;48.726;9.102;2023-02-23T02:30:44;41.72;;;18.60;;
15697;SDS011;7949;48.726;9.102;2023-02-23T02:33:31;44.00;;;18.50;;
15697;SDS011;7949;48.726;9.102;2023-02-23T02:36:17;42.92;;;18.42;;
15697;SDS011;7949;48.726;9.102;2023-02-23T02:38:58;47.28;;;17.92;;
15697;SDS011;7949;48.726;9.102;2023-02-23T02:41:35;39.42;;;17.92;;
15697;SDS011;7949;48.726;9.102;2023-02-23T02:44:10;36.25;;;16.10;;
15697;SDS011;7949;48.726;9.102;2023-02-23T02:46:44;39.30;;;16.50;;
15697;SDS011;7949;48.726;9.102;2023-02-23T02:49:14;42.45;;;15.80;;
15697;SDS011;7949;48.726;9.102;2023-02-23T02:51:50;35.53;;;15.40;;
15697;SDS011;7949;48.726;9.102;2023-02-23T02:54:24;36.38;;;15.02;;
15697;SDS011;7949;48.726;9.102;2023-02-23T02:56:56;33.25;;;15.77;;
15697;SDS011;7949;48.726;9.102;2023-02-23T02:59:26;38.55;;;14.32;;
15697;SDS011;7949;48.726;9.102;2023-02-23T03:02:12;31.50;;;13.43;;
15697;SDS011;7949;48.726;9.102;2023-02-23T03:04:59;30.30;;;12.95;;
15697;SDS011;7949;48.726;9.102;2023-02-23T03:07:44;32.67;;;13.43;;
15697;SDS011;7949;48.726;9.102;2023-02-23T03:10:40;30.20;;;14.02;;
15697;SDS011;7949;48.726;9.102;2023-02-23T03:13:32;30.88;;;13.50;;
15697;SDS011;7949;48.726;9.102;2023-02-23T03:16:30;30.98;;;12.75;;
15697;SDS011;7949;48.726;9.102;2023-02-23T03:19:20;28.58;;;11.73;;
15697;SDS011;7949;48.726;9.102;2023-02-23T03:22:10;30.38;;;11.55;;
15697;SDS011;7949;48.726;9.102;2023-02-23T03:25:01;30.00;;;12.02;;
15697;SDS011;7949;48.726;9.102;2023-02-23T03:27:55;27.63;;;11.68;;
15697;SDS011;7949;48.726;9.102;2023-02-23T03:30:46;31.48;;;12.60;;
15697;SDS011;7949;48.726;9.102;2023-02-23T03:33:38;28.20;;;11.82;;
15697;SDS011;7949;48.726;9.102;2023-02-23T03:36:27;30.30;;;12.63;;
15697;SDS011;7949;48.726;9.102;2023-02-23T03:39:18;24.67;;;11.68;;
15697;SDS011;7949;48.726;9.102;2023-02-23T03:42:08;20.77;;;11.07;;
15697;SDS011;7949;48.726;9.102;2023-02-23T03:44:58;24.25;;;11.15;;
15697;SDS011;7949;48.726;9.102;2023-02-23T03:47:50;19.92;;;9.02;;
15697;SDS011;7949;48.726;9.102;2023-02-23T03:50:36;24.88;;;11.20;;
15697;SDS011;7949;48.726;9.102;2023-02-23T03:53:25;25.85;;;9.40;;
15697;SDS011;7949;48.726;9.102;2023-02-23T03:56:13;23.73;;;9.82;;
15697;SDS011;7949;48.726;9.102;2023-02-23T03:59:00;23.67;;;10.30;;
15697;SDS011;7949;48.726;9.102;2023-02-23T04:01:47;24.50;;;11.05;;
15697;SDS011;7949;48.726;9.102;2023-02-23T04:04:34;18.88;;;9.55;;
15697;SDS011;7949;48.726;9.102;2023-02-23T04:07:19;21.20;;;9.48;;
15697;SDS011;7949;48.726;9.102;2023-02-23T04:10:04;23.10;;;9.38;;
15697;SDS011;7949;48.726;9.102;2023-02-23T04:12:51;20.30;;;9.90;;
15697;SDS011;7949;48.726;9.102;2023-02-23T04:15:40;17.83;;;9.38;;
15697;SDS011;7949;48.726;9.102;2023-02-23T04:18:13;24.77;;;9.37;;
15697;SDS011;7949;48.726;9.102;2023-02-23T04:20:41;20.80;;;8.48;;
15697;SDS011;7949;48.726;9.102;2023-02-23T04:23:08;23.00;;;8.80;;
15697;SDS011;7949;48.726;9.102;2023-02-23T04:25:35;20.25;;;9.13;;
15697;SDS011;7949;48.726;9.102;2023-02-23T04:28:02;29.77;;;9.48;;
15697;SDS011;7949;48.726;9.102;2023-02-23T04:30:29;22.08;;;9.25;;
15697;SDS011;7949;48.726;9.102;2023-02-23T04:32:56;20.27;;;8.85;;
15697;SDS011;7949;48.726;9.102;2023-02-23T04:35:26;22.77;;;8.93;;
15697;SDS011;7949;48.726;9.102;2023-02-23T04:37:55;20.02;;;9.18;;
15697;SDS011;7949;48.726;9.102;2023-02-23T04:40:22;18.15;;;8.05;;
15697;SDS011;7949;48.726;9.102;2023-02-23T04:42:49;18.38;;;8.30;;
15697;SDS011;7949;48.726;9.102;2023-02-23T04:45:16;16.88;;;8.27;;
15697;SDS011;7949;48.726;9.102;2023-02-23T04:47:43;17.30;;;8.13;;
15697;SDS011;7949;48.726;9.102;2023-02-23T04:50:10;25.65;;;8.95;;
15697;SDS011;7949;48.726;9.102;2023-02-23T04:52:39;15.82;;;7.82;;
15697;SDS011;7949;48.726;9.102;2023-02-23T04:55:06;14.88;;;7.30;;
15697;SDS011;7949;48.726;9.102;2023-02-23T04:57:34;12.55;;;7.20;;
15697;SDS011;7949;48.726;9.102;2023-02-23T05:00:01;18.92;;;7.72;;
15697;SDS011;7949;48.726;9.102;2023-02-23T05:02:29;15.23;;;7.43;;
15697;SDS011;7949;48.726;9.102;2023-02-23T05:04:56;16.45;;;7.05;;
15697;SDS011;7949;48.726;9.102;2023-02-23T05:07:23;18.33;;;8.00;;
15697;SDS011;7949;48.726;9.102;2023-02-23T05:09:51;18.35;;;8.13;;
15697;SDS011;7949;48.726;9.102;2023-02-23T05:12:18;15.30;;;7.68;;
15697;SDS011;7949;48.726;9.102;2023-02-23T05:14:44;20.98;;;8.68;;
15697;SDS011;7949;48.726;9.102;2023-02-23T05:17:11;21.00;;;8.88;;
15697;SDS011;7949;48.726;9.102;2023-02-23T05:19:38;20.67;;;8.73;;
15697;SDS011;7949;48.726;9.102;2023-02-23T05:22:05;18.90;;;9.40;;
15697;SDS011;7949;48.726;9.102;2023-02-23T05:24:36;17.25;;;8.80;;
15697;SDS011;7949;48.726;9.102;2023-02-23T05:27:04;22.60;;;9.52;;
15697;SDS011;7949;48.726;9.102;2023-02-23T05:29:32;20.75;;;8.88;;
15697;SDS011;7949;48.726;9.102;2023-02-23T05:31:58;21.45;;;11.18;;
15697;SDS011;7949;48.726;9.102;2023-02-23T05:34:25;20.15;;;10.40;;
15697;SDS011;7949;48.726;9.102;2023-02-23T05:36:53;28.20;;;10.88;;
15697;SDS011;7949;48.726;9.102;2023-02-23T05:39:20;22.20;;;10.02;;
15697;SDS011;7949;48.726;9.102;2023-02-23T05:41:47;19.67;;;9.98;;
15697;SDS011;7949;48.726;9.102;2023-02-23T05:44:15;21.05;;;10.23;;
15697;SDS011;7949;48.726;9.102;2023-02-23T05:46:43;24.30;;;10.32;;
15697;SDS011;7949;48.726;9.102;2023-02-23T05:49:11;24.88;;;10.00;;
15697;SDS011;7949;48.726;9.102;2023-02-23T05:51:38;27.33;;;10.82;;
15697;SDS011;7949;48.726;9.102;2023-02-23T05:54:05;24.38;;;10.80;;
15697;SDS011;7949;48.726;9.102;2023-02-23T05:56:32;20.30;;;9.57;;
15697;SDS011;7949;48.726;9.102;2023-02-23T05:58:59;22.58;;;10.52;;
15697;SDS011;7949;48.726;9.102;2023-02-23T06:01:27;22.55;;;9.95;;
15697;SDS011;7949;48.726;9.102;2023-02-23T06:03:54;22.20;;;9.77;;
15697;SDS011;7949;48.726;9.102;2023-02-23T06:06:21;23.35;;;10.15;;
15697;SDS011;7949;48.726;9.102;2023-02-23T06:08:49;17.80;;;9.52;;
15697;SDS011;7949;48.726;9.102;2023-02-23T06:11:16;21.13;;;10.27;;
15697;SDS011;7949;48.726;9.102;2023-02-23T06:13:43;18.48;;;10.60;;
15697;SDS011;7949;48.726;9.102;2023-02-23T06:16:10;22.60;;;10.30;;
15697;SDS011;7949;48.726;9.102;2023-02-23T06:18:38;23.02;;;11.32;;
15697;SDS011;7949;48.726;9.102;2023-02-23T06:21:05;22.00;;;11.27;;
15697;SDS011;7949;48.726;9.102;2023-02-23T06:23:32;23.90;;;11.07;;
15697;SDS011;7949;48.726;9.102;2023-02-23T06:25:59;21.67;;;11.02;;
15697;SDS011;7949;48.726;9.102;2023-02-23T06:28:26;19.08;;;9.13;;
15697;SDS011;7949;48.726;9.102;2023-02-23T06:30:54;21.35;;;11.20;;
15697;SDS011;7949;48.726;9.102;2023-02-23T06:33:21;24.08;;;11.70;;
15697;SDS011;7949;48.726;9.102;2023-02-23T06:35:50;28.13;;;12.60;;
15697;SDS011;7949;48.726;9.102;2023-02-23T06:38:18;26.90;;;12.60;;
15697;SDS011;7949;48.726;9.102;2023-02-23T06:40:45;27.73;;;11.55;;
15697;SDS011;7949;48.726;9.102;2023-02-23T06:43:12;19.75;;;10.95;;
15697;SDS011;7949;48.726;9.102;2023-02-23T06:45:39;25.55;;;11.98;;
15697;SDS011;7949;48.726;9.102;2023-02-23T06:48:06;28.70;;;11.45;;
15697;SDS011;7949;48.726;9.102;2023-02-23T06:50:33;21.02;;;11.57;;
15697;SDS011;7949;48.726;9.102;2023-02-23T06:53:01;23.08;;;11.27;;
15697;SDS011;7949;48.726;9.102;2023-02-23T06:55:29;26.52;;;12.15;;
15697;SDS011;7949;48.726;9.102;2023-02-23T06:57:56;24.42;;;12.10;;
15697;SDS011;7949;48.726;9.102;2023-02-23T07:00:23;23.17;;;10.85;;
15697;SDS011;7949;48.726;9.102;2023-02-23T07:02:50;20.88;;;10.63;;
15697;SDS011;7949;48.726;9.102;2023-02-23T07:05:17;24.65;;;11.82;;
15697;SDS011;7949;48.726;9.102;2023-02-23T07:07:44;24.00;;;11.98;;
15697;SDS011;7949;48.726;9.102;2023-02-23T07:10:12;23.90;;;11.25;;
15697;SDS011;7949;48.726;9.102;2023-02-23T07:12:39;25.90;;;11.95;;
